sensor_id;sensor_type;location;lat;lon;timestamp;P1;durP1;ratioP1;P2;durP2;ratioP2
209;SDS011;90;48.810;9.120;2023-04-25T00:00:20;2.90;;;2.70;;
209;SDS011;90;48.810;9.120;2023-04-25T00:02:47;4.30;;;2.73;;
209;SDS011;90;48.810;9.120;2023-04-25T00:05:14;2.97;;;2.77;;
209;SDS011;90;48.810;9.120;2023-04-25T00:07:41;2.93;;;2.73;;
209;SDS011;90;48.810;9.120;2023-04-25T00:10:09;3.30;;;3.10;;
209;SDS011;90;48.810;9.120;2023-04-25T00:12:37;3.10;;;2.90;;
209;SDS011;90;48.810;9.120;2023-04-25T00:15:05;3.07;;;2.87;;
209;SDS011;90;48.810;9.120;2023-04-25T00:17:32;3.30;;;3.10;;
209;SDS011;90;48.810;9.120;2023-04-25T00:19:59;6.60;;;2.93;;
209;SDS011;90;48.810;9.120;2023-04-25T00:22:29;3.80;;;3.20;;
209;SDS011;90;48.810;9.120;2023-04-25T00:24:56;3.20;;;3.00;;
209;SDS011;90;48.810;9.120;2023-04-25T00:27:26;3.00;;;2.80;;
209;SDS011;90;48.810;9.120;2023-04-25T00:29:53;4.37;;;3.20;;
209;SDS011;90;48.810;9.120;2023-04-25T00:32:20;3.23;;;3.03;;
209;SDS011;90;48.810;9.120;2023-04-25T00:34:46;3.77;;;3.40;;
209;SDS011;90;48.810;9.120;2023-04-25T00:37:13;3.50;;;3.30;;
209;SDS011;90;48.810;9.120;2023-04-25T00:39:40;3.13;;;3.00;;
209;SDS011;90;48.810;9.120;2023-04-25T00:42:06;5.23;;;3.57;;
209;SDS011;90;48.810;9.120;2023-04-25T00:44:35;3.70;;;3.53;;
209;SDS011;90;48.810;9.120;2023-04-25T00:47:03;3.37;;;3.17;;
209;SDS011;90;48.810;9.120;2023-04-25T00:49:31;4.20;;;3.53;;
209;SDS011;90;48.810;9.120;2023-04-25T00:51:57;4.37;;;3.37;;
209;SDS011;90;48.810;9.120;2023-04-25T00:54:24;5.23;;;3.97;;
209;SDS011;90;48.810;9.120;2023-04-25T00:56:51;5.00;;;3.40;;
209;SDS011;90;48.810;9.120;2023-04-25T00:59:19;3.47;;;3.27;;
209;SDS011;90;48.810;9.120;2023-04-25T01:01:47;4.73;;;3.90;;
209;SDS011;90;48.810;9.120;2023-04-25T01:04:14;4.97;;;3.47;;
209;SDS011;90;48.810;9.120;2023-04-25T01:06:41;3.87;;;3.67;;
209;SDS011;90;48.810;9.120;2023-04-25T01:09:08;3.80;;;3.60;;
209;SDS011;90;48.810;9.120;2023-04-25T01:11:35;4.57;;;4.27;;
209;SDS011;90;48.810;9.120;2023-04-25T01:14:02;4.97;;;4.50;;
209;SDS011;90;48.810;9.120;2023-04-25T01:16:28;4.60;;;3.80;;
209;SDS011;90;48.810;9.120;2023-04-25T01:18:57;4.00;;;3.80;;
209;SDS011;90;48.810;9.120;2023-04-25T01:21:25;4.40;;;4.10;;
209;SDS011;90;48.810;9.120;2023-04-25T01:23:54;5.13;;;4.53;;
209;SDS011;90;48.810;9.120;2023-04-25T01:26:21;8.03;;;4.30;;
209;SDS011;90;48.810;9.120;2023-04-25T01:28:49;6.57;;;4.00;;
209;SDS011;90;48.810;9.120;2023-04-25T01:31:16;6.73;;;4.40;;
209;SDS011;90;48.810;9.120;2023-04-25T01:33:44;4.40;;;4.10;;
209;SDS011;90;48.810;9.120;2023-04-25T01:36:11;4.60;;;4.30;;
209;SDS011;90;48.810;9.120;2023-04-25T01:38:40;4.23;;;3.97;;
209;SDS011;90;48.810;9.120;2023-04-25T01:41:08;4.33;;;3.87;;
209;SDS011;90;48.810;9.120;2023-04-25T01:43:35;4.23;;;3.67;;
209;SDS011;90;48.810;9.120;2023-04-25T01:46:02;5.00;;;3.90;;
209;SDS011;90;48.810;9.120;2023-04-25T01:48:29;4.90;;;4.23;;
209;SDS011;90;48.810;9.120;2023-04-25T01:50:56;4.03;;;3.87;;
209;SDS011;90;48.810;9.120;2023-04-25T01:53:23;3.83;;;3.67;;
209;SDS011;90;48.810;9.120;2023-04-25T01:55:52;3.93;;;3.73;;
209;SDS011;90;48.810;9.120;2023-04-25T01:58:19;4.03;;;3.70;;
209;SDS011;90;48.810;9.120;2023-04-25T02:00:46;5.67;;;4.03;;
209;SDS011;90;48.810;9.120;2023-04-25T02:03:12;7.30;;;3.80;;
209;SDS011;90;48.810;9.120;2023-04-25T02:05:40;4.30;;;3.47;;
209;SDS011;90;48.810;9.120;2023-04-25T02:08:09;6.37;;;3.93;;
209;SDS011;90;48.810;9.120;2023-04-25T02:10:36;4.00;;;3.80;;
209;SDS011;90;48.810;9.120;2023-04-25T02:13:04;3.80;;;3.63;;
209;SDS011;90;48.810;9.120;2023-04-25T02:15:31;4.80;;;3.60;;
209;SDS011;90;48.810;9.120;2023-04-25T02:17:58;4.57;;;3.97;;
209;SDS011;90;48.810;9.120;2023-04-25T02:20:25;4.73;;;4.43;;
209;SDS011;90;48.810;9.120;2023-04-25T02:22:52;4.90;;;3.87;;
209;SDS011;90;48.810;9.120;2023-04-25T02:25:19;4.18;;;3.70;;
209;SDS011;90;48.810;9.120;2023-04-25T02:27:46;4.67;;;4.00;;
209;SDS011;90;48.810;9.120;2023-04-25T02:30:15;6.07;;;4.40;;
209;SDS011;90;48.810;9.120;2023-04-25T02:32:42;4.90;;;4.60;;
209;SDS011;90;48.810;9.120;2023-04-25T02:35:09;4.50;;;4.20;;
209;SDS011;90;48.810;9.120;2023-04-25T02:37:37;7.23;;;4.40;;
209;SDS011;90;48.810;9.120;2023-04-25T02:40:05;4.27;;;4.00;;
209;SDS011;90;48.810;9.120;2023-04-25T02:42:33;4.00;;;3.80;;
209;SDS011;90;48.810;9.120;2023-04-25T02:44:59;4.53;;;4.23;;
209;SDS011;90;48.810;9.120;2023-04-25T02:47:28;3.97;;;3.77;;
209;SDS011;90;48.810;9.120;2023-04-25T02:49:54;4.80;;;4.10;;
209;SDS011;90;48.810;9.120;2023-04-25T02:52:21;4.30;;;4.00;;
209;SDS011;90;48.810;9.120;2023-04-25T02:54:48;5.93;;;4.37;;
209;SDS011;90;48.810;9.120;2023-04-25T02:57:14;4.60;;;4.30;;
209;SDS011;90;48.810;9.120;2023-04-25T02:59:41;5.47;;;4.60;;
209;SDS011;90;48.810;9.120;2023-04-25T03:02:08;4.77;;;4.47;;
209;SDS011;90;48.810;9.120;2023-04-25T03:04:36;4.67;;;4.40;;
209;SDS011;90;48.810;9.120;2023-04-25T03:07:02;4.50;;;4.20;;
209;SDS011;90;48.810;9.120;2023-04-25T03:09:30;5.20;;;4.03;;
209;SDS011;90;48.810;9.120;2023-04-25T03:11:56;5.90;;;4.23;;
209;SDS011;90;48.810;9.120;2023-04-25T03:14:23;5.27;;;4.30;;
209;SDS011;90;48.810;9.120;2023-04-25T03:16:49;4.30;;;4.00;;
209;SDS011;90;48.810;9.120;2023-04-25T03:19:16;9.27;;;4.07;;
209;SDS011;90;48.810;9.120;2023-04-25T03:21:45;5.50;;;4.73;;
209;SDS011;90;48.810;9.120;2023-04-25T03:24:11;5.60;;;5.10;;
209;SDS011;90;48.810;9.120;2023-04-25T03:26:38;6.43;;;4.80;;
209;SDS011;90;48.810;9.120;2023-04-25T03:29:05;10.37;;;4.47;;
209;SDS011;90;48.810;9.120;2023-04-25T03:31:32;4.30;;;4.03;;
209;SDS011;90;48.810;9.120;2023-04-25T03:33:59;5.25;;;4.40;;
209;SDS011;90;48.810;9.120;2023-04-25T03:36:25;4.73;;;4.43;;
209;SDS011;90;48.810;9.120;2023-04-25T03:38:53;7.30;;;4.80;;
209;SDS011;90;48.810;9.120;2023-04-25T03:41:20;5.03;;;4.37;;
209;SDS011;90;48.810;9.120;2023-04-25T03:43:46;4.30;;;4.00;;
209;SDS011;90;48.810;9.120;2023-04-25T03:46:13;5.97;;;4.50;;
209;SDS011;90;48.810;9.120;2023-04-25T03:48:40;5.23;;;4.57;;
209;SDS011;90;48.810;9.120;2023-04-25T03:51:06;4.97;;;4.63;;
209;SDS011;90;48.810;9.120;2023-04-25T03:53:33;5.03;;;4.60;;
209;SDS011;90;48.810;9.120;2023-04-25T03:56:01;4.80;;;4.50;;
209;SDS011;90;48.810;9.120;2023-04-25T03:58:28;5.40;;;4.40;;
209;SDS011;90;48.810;9.120;2023-04-25T04:00:55;5.70;;;4.60;;
209;SDS011;90;48.810;9.120;2023-04-25T04:03:21;5.77;;;4.60;;
209;SDS011;90;48.810;9.120;2023-04-25T04:05:48;5.20;;;4.90;;
209;SDS011;90;48.810;9.120;2023-04-25T04:08:15;4.63;;;4.33;;
209;SDS011;90;48.810;9.120;2023-04-25T04:10:42;5.03;;;4.73;;
209;SDS011;90;48.810;9.120;2023-04-25T04:13:10;6.00;;;5.07;;
209;SDS011;90;48.810;9.120;2023-04-25T04:15:36;7.20;;;4.87;;
209;SDS011;90;48.810;9.120;2023-04-25T04:18:03;12.40;;;5.10;;
209;SDS011;90;48.810;9.120;2023-04-25T04:20:31;5.93;;;5.63;;
209;SDS011;90;48.810;9.120;2023-04-25T04:22:57;6.40;;;5.17;;
209;SDS011;90;48.810;9.120;2023-04-25T04:25:24;5.93;;;5.10;;
209;SDS011;90;48.810;9.120;2023-04-25T04:27:51;7.03;;;5.60;;
209;SDS011;90;48.810;9.120;2023-04-25T04:30:21;6.87;;;5.53;;
209;SDS011;90;48.810;9.120;2023-04-25T04:32:48;7.37;;;5.63;;
209;SDS011;90;48.810;9.120;2023-04-25T04:35:15;8.63;;;6.10;;
209;SDS011;90;48.810;9.120;2023-04-25T04:37:42;6.00;;;5.40;;
209;SDS011;90;48.810;9.120;2023-04-25T04:40:10;7.40;;;6.23;;
209;SDS011;90;48.810;9.120;2023-04-25T04:42:40;9.00;;;5.90;;
209;SDS011;90;48.810;9.120;2023-04-25T04:45:07;8.57;;;6.27;;
209;SDS011;90;48.810;9.120;2023-04-25T04:47:36;7.20;;;5.80;;
209;SDS011;90;48.810;9.120;2023-04-25T04:50:04;6.77;;;6.13;;
209;SDS011;90;48.810;9.120;2023-04-25T04:52:32;9.30;;;6.07;;
209;SDS011;90;48.810;9.120;2023-04-25T04:54:59;6.50;;;5.83;;
209;SDS011;90;48.810;9.120;2023-04-25T04:57:25;8.07;;;5.85;;
209;SDS011;90;48.810;9.120;2023-04-25T04:59:53;6.57;;;6.17;;
209;SDS011;90;48.810;9.120;2023-04-25T05:02:20;6.73;;;5.40;;
209;SDS011;90;48.810;9.120;2023-04-25T05:04:48;7.30;;;6.13;;
209;SDS011;90;48.810;9.120;2023-04-25T05:07:16;7.07;;;6.30;;
209;SDS011;90;48.810;9.120;2023-04-25T05:09:43;9.27;;;6.47;;
209;SDS011;90;48.810;9.120;2023-04-25T05:12:10;7.70;;;6.43;;
209;SDS011;90;48.810;9.120;2023-04-25T05:14:37;9.17;;;6.47;;
209;SDS011;90;48.810;9.120;2023-04-25T05:17:03;7.60;;;6.53;;
209;SDS011;90;48.810;9.120;2023-04-25T05:19:33;6.20;;;5.63;;
209;SDS011;90;48.810;9.120;2023-04-25T05:22:02;9.33;;;5.87;;
209;SDS011;90;48.810;9.120;2023-04-25T05:24:28;7.40;;;5.90;;
209;SDS011;90;48.810;9.120;2023-04-25T05:26:55;6.63;;;5.80;;
209;SDS011;90;48.810;9.120;2023-04-25T05:29:22;6.13;;;5.60;;
209;SDS011;90;48.810;9.120;2023-04-25T05:31:49;5.23;;;4.63;;
209;SDS011;90;48.810;9.120;2023-04-25T05:34:16;6.30;;;5.00;;
209;SDS011;90;48.810;9.120;2023-04-25T05:36:42;8.10;;;6.30;;
209;SDS011;90;48.810;9.120;2023-04-25T05:39:10;9.30;;;6.33;;
209;SDS011;90;48.810;9.120;2023-04-25T05:41:37;8.23;;;6.03;;
209;SDS011;90;48.810;9.120;2023-04-25T05:44:04;5.60;;;5.20;;
209;SDS011;90;48.810;9.120;2023-04-25T05:46:32;7.50;;;5.90;;
209;SDS011;90;48.810;9.120;2023-04-25T05:48:58;8.07;;;5.93;;
209;SDS011;90;48.810;9.120;2023-04-25T05:51:25;6.63;;;5.80;;
209;SDS011;90;48.810;9.120;2023-04-25T05:53:52;6.97;;;5.80;;
209;SDS011;90;48.810;9.120;2023-04-25T05:56:20;5.20;;;4.90;;
209;SDS011;90;48.810;9.120;2023-04-25T05:58:47;6.60;;;5.70;;
209;SDS011;90;48.810;9.120;2023-04-25T06:01:14;5.57;;;5.03;;
209;SDS011;90;48.810;9.120;2023-04-25T06:03:41;5.40;;;5.10;;
209;SDS011;90;48.810;9.120;2023-04-25T06:06:10;5.97;;;5.50;;
209;SDS011;90;48.810;9.120;2023-04-25T06:08:37;6.60;;;5.37;;
209;SDS011;90;48.810;9.120;2023-04-25T06:11:04;4.93;;;4.67;;
209;SDS011;90;48.810;9.120;2023-04-25T06:13:34;7.00;;;5.30;;
209;SDS011;90;48.810;9.120;2023-04-25T06:16:01;6.20;;;5.20;;
209;SDS011;90;48.810;9.120;2023-04-25T06:18:27;6.60;;;5.37;;
209;SDS011;90;48.810;9.120;2023-04-25T06:20:54;6.00;;;5.53;;
209;SDS011;90;48.810;9.120;2023-04-25T06:23:21;7.03;;;5.00;;
209;SDS011;90;48.810;9.120;2023-04-25T06:25:47;7.97;;;5.60;;
209;SDS011;90;48.810;9.120;2023-04-25T06:28:14;6.60;;;5.03;;
209;SDS011;90;48.810;9.120;2023-04-25T06:30:42;6.50;;;5.73;;
209;SDS011;90;48.810;9.120;2023-04-25T06:33:10;5.57;;;4.97;;
209;SDS011;90;48.810;9.120;2023-04-25T06:35:36;6.93;;;6.00;;
209;SDS011;90;48.810;9.120;2023-04-25T06:38:03;7.10;;;5.43;;
209;SDS011;90;48.810;9.120;2023-04-25T06:40:30;10.00;;;6.37;;
209;SDS011;90;48.810;9.120;2023-04-25T06:42:56;7.63;;;5.10;;
209;SDS011;90;48.810;9.120;2023-04-25T06:45:23;8.63;;;5.77;;
209;SDS011;90;48.810;9.120;2023-04-25T06:47:51;6.40;;;5.37;;
209;SDS011;90;48.810;9.120;2023-04-25T06:50:18;6.37;;;5.60;;
209;SDS011;90;48.810;9.120;2023-04-25T06:52:46;5.30;;;5.00;;
209;SDS011;90;48.810;9.120;2023-04-25T06:55:13;7.83;;;6.13;;
209;SDS011;90;48.810;9.120;2023-04-25T06:57:39;7.20;;;6.17;;
209;SDS011;90;48.810;9.120;2023-04-25T07:00:07;6.60;;;5.53;;
209;SDS011;90;48.810;9.120;2023-04-25T07:02:34;8.00;;;6.23;;
209;SDS011;90;48.810;9.120;2023-04-25T07:05:02;6.93;;;5.90;;
209;SDS011;90;48.810;9.120;2023-04-25T07:07:30;7.10;;;6.00;;
209;SDS011;90;48.810;9.120;2023-04-25T07:09:57;6.67;;;5.60;;
209;SDS011;90;48.810;9.120;2023-04-25T07:12:24;5.90;;;5.60;;
209;SDS011;90;48.810;9.120;2023-04-25T07:14:50;6.20;;;5.87;;
209;SDS011;90;48.810;9.120;2023-04-25T07:17:17;7.73;;;5.80;;
209;SDS011;90;48.810;9.120;2023-04-25T07:19:44;9.03;;;6.50;;
209;SDS011;90;48.810;9.120;2023-04-25T07:22:12;6.97;;;5.50;;
209;SDS011;90;48.810;9.120;2023-04-25T07:24:39;8.70;;;6.60;;
209;SDS011;90;48.810;9.120;2023-04-25T07:27:05;8.33;;;6.00;;
209;SDS011;90;48.810;9.120;2023-04-25T07:29:32;7.53;;;5.90;;
209;SDS011;90;48.810;9.120;2023-04-25T07:32:02;8.60;;;5.80;;
209;SDS011;90;48.810;9.120;2023-04-25T07:34:29;8.70;;;6.67;;
209;SDS011;90;48.810;9.120;2023-04-25T07:36:57;7.07;;;6.40;;
209;SDS011;90;48.810;9.120;2023-04-25T07:39:25;7.83;;;6.03;;
209;SDS011;90;48.810;9.120;2023-04-25T07:41:52;6.83;;;6.47;;
209;SDS011;90;48.810;9.120;2023-04-25T07:44:18;9.50;;;6.70;;
209;SDS011;90;48.810;9.120;2023-04-25T07:46:45;6.77;;;5.97;;
209;SDS011;90;48.810;9.120;2023-04-25T07:49:12;8.30;;;6.70;;
209;SDS011;90;48.810;9.120;2023-04-25T07:51:39;8.47;;;6.10;;
209;SDS011;90;48.810;9.120;2023-04-25T07:54:06;9.77;;;6.63;;
209;SDS011;90;48.810;9.120;2023-04-25T07:56:34;11.47;;;6.63;;
209;SDS011;90;48.810;9.120;2023-04-25T07:59:01;7.50;;;5.80;;
209;SDS011;90;48.810;9.120;2023-04-25T08:01:27;8.63;;;6.83;;
209;SDS011;90;48.810;9.120;2023-04-25T08:03:54;7.03;;;4.83;;
209;SDS011;90;48.810;9.120;2023-04-25T08:06:21;8.47;;;6.60;;
209;SDS011;90;48.810;9.120;2023-04-25T08:08:47;7.93;;;6.73;;
209;SDS011;90;48.810;9.120;2023-04-25T08:11:14;9.10;;;6.60;;
209;SDS011;90;48.810;9.120;2023-04-25T08:13:42;7.57;;;6.13;;
209;SDS011;90;48.810;9.120;2023-04-25T08:16:09;8.20;;;6.63;;
209;SDS011;90;48.810;9.120;2023-04-25T08:18:36;7.47;;;5.90;;
209;SDS011;90;48.810;9.120;2023-04-25T08:21:02;8.47;;;6.73;;
209;SDS011;90;48.810;9.120;2023-04-25T08:23:29;10.80;;;6.80;;
209;SDS011;90;48.810;9.120;2023-04-25T08:25:56;8.30;;;6.63;;
209;SDS011;90;48.810;9.120;2023-04-25T08:28:23;7.80;;;7.13;;
209;SDS011;90;48.810;9.120;2023-04-25T08:30:51;12.20;;;7.10;;
209;SDS011;90;48.810;9.120;2023-04-25T08:33:18;7.67;;;7.13;;
209;SDS011;90;48.810;9.120;2023-04-25T08:35:45;9.83;;;6.43;;
209;SDS011;90;48.810;9.120;2023-04-25T08:38:11;8.17;;;6.70;;
209;SDS011;90;48.810;9.120;2023-04-25T08:40:38;9.90;;;7.00;;
209;SDS011;90;48.810;9.120;2023-04-25T08:43:06;14.57;;;7.87;;
209;SDS011;90;48.810;9.120;2023-04-25T08:45:36;18.03;;;7.73;;
209;SDS011;90;48.810;9.120;2023-04-25T08:48:07;9.33;;;6.57;;
209;SDS011;90;48.810;9.120;2023-04-25T08:50:37;11.13;;;7.30;;
209;SDS011;90;48.810;9.120;2023-04-25T08:53:06;10.37;;;7.00;;
209;SDS011;90;48.810;9.120;2023-04-25T08:55:35;8.40;;;6.70;;
209;SDS011;90;48.810;9.120;2023-04-25T08:58:05;9.60;;;7.03;;
209;SDS011;90;48.810;9.120;2023-04-25T09:00:32;13.40;;;7.00;;
209;SDS011;90;48.810;9.120;2023-04-25T09:02:58;7.33;;;6.40;;
209;SDS011;90;48.810;9.120;2023-04-25T09:05:27;7.70;;;6.00;;
209;SDS011;90;48.810;9.120;2023-04-25T09:07:54;8.50;;;6.70;;
209;SDS011;90;48.810;9.120;2023-04-25T09:10:21;7.87;;;6.73;;
209;SDS011;90;48.810;9.120;2023-04-25T09:13:01;7.50;;;6.37;;
209;SDS011;90;48.810;9.120;2023-04-25T09:15:29;7.10;;;6.23;;
209;SDS011;90;48.810;9.120;2023-04-25T09:17:56;7.97;;;6.30;;
209;SDS011;90;48.810;9.120;2023-04-25T09:20:23;7.60;;;5.83;;
209;SDS011;90;48.810;9.120;2023-04-25T09:23:02;6.37;;;6.00;;
209;SDS011;90;48.810;9.120;2023-04-25T09:25:33;7.30;;;6.00;;
209;SDS011;90;48.810;9.120;2023-04-25T09:28:03;9.67;;;6.50;;
209;SDS011;90;48.810;9.120;2023-04-25T09:30:31;6.60;;;4.77;;
209;SDS011;90;48.810;9.120;2023-04-25T09:33:03;6.40;;;5.60;;
209;SDS011;90;48.810;9.120;2023-04-25T09:35:34;7.50;;;5.63;;
209;SDS011;90;48.810;9.120;2023-04-25T09:38:07;5.40;;;5.10;;
209;SDS011;90;48.810;9.120;2023-04-25T09:40:38;5.70;;;5.40;;
209;SDS011;90;48.810;9.120;2023-04-25T09:43:08;5.73;;;5.43;;
209;SDS011;90;48.810;9.120;2023-04-25T09:45:40;5.70;;;5.47;;
209;SDS011;90;48.810;9.120;2023-04-25T09:48:10;5.97;;;5.67;;
209;SDS011;90;48.810;9.120;2023-04-25T09:50:37;7.40;;;5.53;;
209;SDS011;90;48.810;9.120;2023-04-25T09:53:04;5.00;;;4.70;;
209;SDS011;90;48.810;9.120;2023-04-25T09:55:33;5.10;;;4.80;;
209;SDS011;90;48.810;9.120;2023-04-25T09:58:03;7.93;;;4.10;;
209;SDS011;90;48.810;9.120;2023-04-25T10:00:31;3.43;;;3.23;;
209;SDS011;90;48.810;9.120;2023-04-25T10:02:59;3.40;;;3.10;;
209;SDS011;90;48.810;9.120;2023-04-25T10:05:30;3.50;;;3.30;;
209;SDS011;90;48.810;9.120;2023-04-25T10:07:59;4.00;;;3.20;;
209;SDS011;90;48.810;9.120;2023-04-25T10:10:29;2.73;;;2.50;;
209;SDS011;90;48.810;9.120;2023-04-25T10:13:03;3.47;;;3.27;;
209;SDS011;90;48.810;9.120;2023-04-25T10:15:30;3.43;;;2.90;;
209;SDS011;90;48.810;9.120;2023-04-25T10:18:00;3.13;;;2.93;;
209;SDS011;90;48.810;9.120;2023-04-25T10:20:28;2.80;;;2.60;;
209;SDS011;90;48.810;9.120;2023-04-25T10:22:55;2.72;;;2.53;;
209;SDS011;90;48.810;9.120;2023-04-25T10:25:29;2.50;;;2.30;;
209;SDS011;90;48.810;9.120;2023-04-25T10:27:57;2.50;;;2.27;;
209;SDS011;90;48.810;9.120;2023-04-25T10:30:27;3.00;;;2.80;;
209;SDS011;90;48.810;9.120;2023-04-25T10:32:54;3.10;;;2.90;;
209;SDS011;90;48.810;9.120;2023-04-25T10:35:24;4.53;;;3.20;;
209;SDS011;90;48.810;9.120;2023-04-25T10:38:05;5.07;;;4.77;;
209;SDS011;90;48.810;9.120;2023-04-25T10:40:35;8.07;;;6.10;;
209;SDS011;90;48.810;9.120;2023-04-25T10:46:02;9.43;;;7.73;;
209;SDS011;90;48.810;9.120;2023-04-25T10:48:43;13.10;;;8.43;;
209;SDS011;90;48.810;9.120;2023-04-25T10:51:15;14.27;;;8.90;;
209;SDS011;90;48.810;9.120;2023-04-25T10:53:43;10.70;;;7.60;;
209;SDS011;90;48.810;9.120;2023-04-25T10:56:10;11.47;;;7.20;;
209;SDS011;90;48.810;9.120;2023-04-25T10:58:41;13.23;;;7.70;;
209;SDS011;90;48.810;9.120;2023-04-25T11:01:10;13.10;;;7.67;;
209;SDS011;90;48.810;9.120;2023-04-25T11:03:39;10.93;;;6.90;;
209;SDS011;90;48.810;9.120;2023-04-25T11:06:07;7.23;;;6.13;;
209;SDS011;90;48.810;9.120;2023-04-25T11:08:47;9.50;;;6.73;;
209;SDS011;90;48.810;9.120;2023-04-25T11:11:16;8.80;;;5.80;;
209;SDS011;90;48.810;9.120;2023-04-25T11:13:43;4.03;;;3.83;;
209;SDS011;90;48.810;9.120;2023-04-25T11:16:11;4.73;;;3.97;;
209;SDS011;90;48.810;9.120;2023-04-25T11:18:40;3.67;;;3.47;;
209;SDS011;90;48.810;9.120;2023-04-25T11:21:07;4.50;;;3.67;;
209;SDS011;90;48.810;9.120;2023-04-25T11:23:34;4.07;;;3.60;;
209;SDS011;90;48.810;9.120;2023-04-25T11:26:01;4.53;;;4.23;;
209;SDS011;90;48.810;9.120;2023-04-25T11:28:28;4.47;;;4.07;;
209;SDS011;90;48.810;9.120;2023-04-25T11:30:55;5.00;;;4.40;;
209;SDS011;90;48.810;9.120;2023-04-25T11:33:27;5.03;;;4.30;;
209;SDS011;90;48.810;9.120;2023-04-25T11:35:54;4.57;;;4.27;;
209;SDS011;90;48.810;9.120;2023-04-25T11:38:22;4.60;;;4.30;;
209;SDS011;90;48.810;9.120;2023-04-25T11:40:51;5.23;;;4.67;;
209;SDS011;90;48.810;9.120;2023-04-25T11:43:19;4.90;;;4.60;;
209;SDS011;90;48.810;9.120;2023-04-25T11:45:47;5.20;;;4.93;;
209;SDS011;90;48.810;9.120;2023-04-25T11:48:14;5.30;;;5.00;;
209;SDS011;90;48.810;9.120;2023-04-25T11:50:42;7.93;;;6.00;;
209;SDS011;90;48.810;9.120;2023-04-25T11:53:09;5.93;;;5.13;;
209;SDS011;90;48.810;9.120;2023-04-25T11:55:36;6.47;;;5.60;;
209;SDS011;90;48.810;9.120;2023-04-25T11:58:03;5.90;;;5.20;;
209;SDS011;90;48.810;9.120;2023-04-25T12:00:31;6.97;;;5.57;;
209;SDS011;90;48.810;9.120;2023-04-25T12:02:58;8.20;;;5.70;;
209;SDS011;90;48.810;9.120;2023-04-25T12:05:26;11.00;;;6.03;;
209;SDS011;90;48.810;9.120;2023-04-25T12:07:55;8.20;;;6.00;;
209;SDS011;90;48.810;9.120;2023-04-25T12:10:23;8.83;;;6.40;;
209;SDS011;90;48.810;9.120;2023-04-25T12:12:51;7.23;;;5.90;;
209;SDS011;90;48.810;9.120;2023-04-25T12:15:22;11.03;;;5.87;;
209;SDS011;90;48.810;9.120;2023-04-25T12:17:51;7.50;;;5.83;;
209;SDS011;90;48.810;9.120;2023-04-25T12:20:20;10.53;;;7.90;;
209;SDS011;90;48.810;9.120;2023-04-25T12:22:50;13.63;;;8.50;;
209;SDS011;90;48.810;9.120;2023-04-25T12:28:11;15.57;;;7.37;;
209;SDS011;90;48.810;9.120;2023-04-25T12:30:58;12.00;;;7.77;;
209;SDS011;90;48.810;9.120;2023-04-25T12:33:27;13.47;;;7.60;;
209;SDS011;90;48.810;9.120;2023-04-25T12:35:55;11.00;;;7.70;;
209;SDS011;90;48.810;9.120;2023-04-25T12:38:24;13.20;;;7.67;;
209;SDS011;90;48.810;9.120;2023-04-25T12:40:53;11.27;;;7.33;;
209;SDS011;90;48.810;9.120;2023-04-25T12:43:20;14.03;;;8.80;;
209;SDS011;90;48.810;9.120;2023-04-25T12:45:47;12.00;;;8.33;;
209;SDS011;90;48.810;9.120;2023-04-25T12:48:15;11.40;;;7.97;;
209;SDS011;90;48.810;9.120;2023-04-25T12:50:41;16.87;;;8.80;;
209;SDS011;90;48.810;9.120;2023-04-25T12:53:08;12.50;;;7.60;;
209;SDS011;90;48.810;9.120;2023-04-25T12:55:35;13.33;;;7.90;;
209;SDS011;90;48.810;9.120;2023-04-25T12:58:03;14.33;;;8.40;;
209;SDS011;90;48.810;9.120;2023-04-25T13:00:30;9.63;;;7.33;;
209;SDS011;90;48.810;9.120;2023-04-25T13:02:57;11.57;;;8.20;;
209;SDS011;90;48.810;9.120;2023-04-25T13:05:24;13.53;;;8.00;;
209;SDS011;90;48.810;9.120;2023-04-25T13:07:50;15.10;;;8.17;;
209;SDS011;90;48.810;9.120;2023-04-25T13:10:17;12.40;;;8.53;;
209;SDS011;90;48.810;9.120;2023-04-25T13:12:44;14.43;;;8.40;;
209;SDS011;90;48.810;9.120;2023-04-25T13:15:12;16.07;;;8.57;;
209;SDS011;90;48.810;9.120;2023-04-25T13:17:40;14.67;;;9.60;;
209;SDS011;90;48.810;9.120;2023-04-25T13:20:08;14.60;;;9.90;;
209;SDS011;90;48.810;9.120;2023-04-25T13:22:35;16.57;;;10.17;;
209;SDS011;90;48.810;9.120;2023-04-25T13:25:03;20.73;;;11.10;;
209;SDS011;90;48.810;9.120;2023-04-25T13:27:31;18.50;;;11.00;;
209;SDS011;90;48.810;9.120;2023-04-25T13:29:58;19.87;;;11.77;;
209;SDS011;90;48.810;9.120;2023-04-25T13:32:27;19.17;;;11.67;;
209;SDS011;90;48.810;9.120;2023-04-25T13:34:54;21.27;;;12.03;;
209;SDS011;90;48.810;9.120;2023-04-25T13:37:21;26.93;;;14.00;;
209;SDS011;90;48.810;9.120;2023-04-25T13:39:49;25.80;;;14.43;;
209;SDS011;90;48.810;9.120;2023-04-25T13:42:16;19.63;;;12.60;;
209;SDS011;90;48.810;9.120;2023-04-25T13:44:42;24.83;;;13.60;;
209;SDS011;90;48.810;9.120;2023-04-25T13:47:09;20.63;;;13.13;;
209;SDS011;90;48.810;9.120;2023-04-25T13:49:38;18.00;;;11.53;;
209;SDS011;90;48.810;9.120;2023-04-25T13:52:04;21.83;;;12.43;;
209;SDS011;90;48.810;9.120;2023-04-25T13:54:32;24.23;;;12.90;;
209;SDS011;90;48.810;9.120;2023-04-25T13:56:59;17.87;;;11.40;;
209;SDS011;90;48.810;9.120;2023-04-25T13:59:26;19.70;;;10.93;;
209;SDS011;90;48.810;9.120;2023-04-25T14:01:53;17.97;;;10.83;;
209;SDS011;90;48.810;9.120;2023-04-25T14:04:20;18.53;;;11.17;;
209;SDS011;90;48.810;9.120;2023-04-25T14:06:48;14.87;;;10.17;;
209;SDS011;90;48.810;9.120;2023-04-25T14:09:15;14.47;;;9.70;;
209;SDS011;90;48.810;9.120;2023-04-25T14:11:42;14.33;;;9.67;;
209;SDS011;90;48.810;9.120;2023-04-25T14:14:09;15.17;;;10.27;;
209;SDS011;90;48.810;9.120;2023-04-25T14:16:37;14.40;;;10.30;;
209;SDS011;90;48.810;9.120;2023-04-25T14:19:04;16.17;;;9.33;;
209;SDS011;90;48.810;9.120;2023-04-25T14:21:30;12.40;;;8.60;;
209;SDS011;90;48.810;9.120;2023-04-25T14:23:59;14.07;;;7.70;;
209;SDS011;90;48.810;9.120;2023-04-25T14:26:26;8.47;;;7.37;;
209;SDS011;90;48.810;9.120;2023-04-25T14:28:53;12.70;;;6.97;;
209;SDS011;90;48.810;9.120;2023-04-25T14:31:19;8.57;;;7.30;;
209;SDS011;90;48.810;9.120;2023-04-25T14:33:46;9.40;;;7.10;;
209;SDS011;90;48.810;9.120;2023-04-25T14:36:13;14.73;;;8.17;;
209;SDS011;90;48.810;9.120;2023-04-25T14:38:40;9.37;;;7.60;;
209;SDS011;90;48.810;9.120;2023-04-25T14:41:08;13.33;;;7.23;;
209;SDS011;90;48.810;9.120;2023-04-25T14:43:35;13.23;;;8.53;;
209;SDS011;90;48.810;9.120;2023-04-25T14:46:02;11.40;;;8.33;;
209;SDS011;90;48.810;9.120;2023-04-25T14:48:29;11.53;;;8.00;;
209;SDS011;90;48.810;9.120;2023-04-25T14:50:56;12.40;;;7.10;;
209;SDS011;90;48.810;9.120;2023-04-25T14:53:23;10.77;;;8.17;;
209;SDS011;90;48.810;9.120;2023-04-25T14:55:49;9.70;;;7.23;;
209;SDS011;90;48.810;9.120;2023-04-25T14:58:17;12.07;;;8.77;;
209;SDS011;90;48.810;9.120;2023-04-25T15:00:44;14.60;;;8.83;;
209;SDS011;90;48.810;9.120;2023-04-25T15:03:11;13.47;;;9.33;;
209;SDS011;90;48.810;9.120;2023-04-25T15:05:38;15.70;;;9.10;;
209;SDS011;90;48.810;9.120;2023-04-25T15:08:05;13.27;;;9.20;;
209;SDS011;90;48.810;9.120;2023-04-25T15:10:32;13.73;;;8.73;;
209;SDS011;90;48.810;9.120;2023-04-25T15:13:00;13.47;;;8.80;;
209;SDS011;90;48.810;9.120;2023-04-25T15:15:28;14.50;;;8.57;;
209;SDS011;90;48.810;9.120;2023-04-25T15:17:55;16.87;;;8.83;;
209;SDS011;90;48.810;9.120;2023-04-25T15:20:23;11.23;;;8.40;;
209;SDS011;90;48.810;9.120;2023-04-25T15:22:50;10.37;;;7.00;;
209;SDS011;90;48.810;9.120;2023-04-25T15:25:17;10.80;;;7.73;;
209;SDS011;90;48.810;9.120;2023-04-25T15:27:43;12.50;;;8.00;;
209;SDS011;90;48.810;9.120;2023-04-25T15:30:13;19.53;;;8.20;;
209;SDS011;90;48.810;9.120;2023-04-25T15:32:42;16.80;;;8.87;;
209;SDS011;90;48.810;9.120;2023-04-25T15:35:10;15.93;;;8.10;;
209;SDS011;90;48.810;9.120;2023-04-25T15:37:37;10.93;;;7.80;;
209;SDS011;90;48.810;9.120;2023-04-25T15:40:05;12.93;;;8.83;;
209;SDS011;90;48.810;9.120;2023-04-25T15:42:34;12.53;;;8.57;;
209;SDS011;90;48.810;9.120;2023-04-25T15:45:01;12.23;;;8.50;;
209;SDS011;90;48.810;9.120;2023-04-25T15:47:29;11.80;;;8.07;;
209;SDS011;90;48.810;9.120;2023-04-25T15:49:58;12.73;;;9.00;;
209;SDS011;90;48.810;9.120;2023-04-25T15:52:25;13.00;;;8.60;;
209;SDS011;90;48.810;9.120;2023-04-25T15:54:53;12.47;;;9.10;;
209;SDS011;90;48.810;9.120;2023-04-25T15:57:19;14.67;;;9.00;;
209;SDS011;90;48.810;9.120;2023-04-25T15:59:47;14.00;;;9.90;;
209;SDS011;90;48.810;9.120;2023-04-25T16:02:14;16.60;;;8.77;;
209;SDS011;90;48.810;9.120;2023-04-25T16:04:41;17.10;;;9.50;;